Time;durP1;ratioP1;P1;durP2;ratioP2;P2;SDS_P1;SDS_P2;PMS_P1;PMS_P2;Temp;Humidity;BMP_temperature;BMP_pressure;BME280_temperature;BME280_humidity;BME280_pressure;Samples;Min_cycle;Max_cycle;Signal;HPM_P1;HPM_P2
2022/04/18 00:00:01;;;;;;;2.00;1.30;;;;;;;;;;6208022;23;20008;-51
2022/04/18 00:02:27;;;;;;;0.98;0.93;;;;;;;;;;6207779;23;20071;-52
2022/04/18 00:04:54;;;;;;;1.70;0.93;;;;;;;;;;6208393;23;20066;-52
2022/04/18 00:07:20;;;;;;;2.15;1.60;;;;;;;;;;6208253;23;20099;-53
2022/04/18 00:09:46;;;;;;;1.50;1.00;;;;;;;;;;6207636;23;20000;-53
2022/04/18 00:12:12;;;;;;;1.45;1.23;;;;;;;;;;6206630;23;20008;-51
2022/04/18 00:14:38;;;;;;;1.73;1.30;;;;;;;;;;6208477;23;20004;-52
2022/04/18 00:17:09;;;;;;;1.30;1.00;;;;;;;;;;6207626;23;20040;-51
2022/04/18 00:19:36;;;;;;;2.00;1.40;;;;;;;;;;6208160;23;20644;-51
2022/04/18 00:22:02;;;;;;;1.10;1.00;;;;;;;;;;6207717;23;20334;-53
2022/04/18 00:24:28;;;;;;;1.08;0.90;;;;;;;;;;6208170;23;20071;-52
2022/04/18 00:26:54;;;;;;;1.27;1.02;;;;;;;;;;6208325;23;20054;-53
2022/04/18 00:29:20;;;;;;;1.83;1.00;;;;;;;;;;6208151;23;20062;-51
2022/04/18 00:31:46;;;;;;;1.05;0.85;;;;;;;;;;6206437;23;20353;-53
2022/04/18 00:34:14;;;;;;;1.92;0.90;;;;;;;;;;6208742;23;20346;-53
2022/04/18 00:36:40;;;;;;;1.55;0.98;;;;;;;;;;6208569;23;20450;-52
2022/04/18 00:39:06;;;;;;;1.23;0.90;;;;;;;;;;6207560;23;20005;-51
2022/04/18 00:41:32;;;;;;;1.17;0.90;;;;;;;;;;6207487;23;20338;-51
2022/04/18 00:43:58;;;;;;;1.02;0.93;;;;;;;;;;6208222;23;20386;-51
2022/04/18 00:46:24;;;;;;;1.45;1.10;;;;;;;;;;6207111;23;20079;-52
2022/04/18 00:48:50;;;;;;;2.00;1.10;;;;;;;;;;6207660;23;20549;-53
2022/04/18 00:51:24;;;;;;;1.10;0.88;;;;;;;;;;6207333;23;20008;-53
2022/04/18 00:53:53;;;;;;;1.23;1.10;;;;;;;;;;6208042;23;20020;-53
2022/04/18 00:56:19;;;;;;;1.33;1.17;;;;;;;;;;6207749;23;20055;-52
2022/04/18 00:58:49;;;;;;;1.88;1.35;;;;;;;;;;6207640;23;20008;-53
2022/04/18 01:01:15;;;;;;;1.65;1.13;;;;;;;;;;6206847;23;20013;-51
2022/04/18 01:03:42;;;;;;;1.73;1.10;;;;;;;;;;6208027;23;20028;-53
2022/04/18 01:06:08;;;;;;;1.25;0.95;;;;;;;;;;6208730;23;20004;-51
2022/04/18 01:08:35;;;;;;;2.38;1.30;;;;;;;;;;6207358;23;20104;-53
2022/04/18 01:11:01;;;;;;;2.20;1.20;;;;;;;;;;6207691;23;20075;-53
2022/04/18 01:13:28;;;;;;;1.73;1.27;;;;;;;;;;6207978;23;20028;-52
2022/04/18 01:15:55;;;;;;;1.23;0.98;;;;;;;;;;6207504;23;20005;-53
2022/04/18 01:18:22;;;;;;;2.13;1.10;;;;;;;;;;6206298;23;20005;-52
2022/04/18 01:20:48;;;;;;;1.85;1.15;;;;;;;;;;6207636;23;20004;-51
2022/04/18 01:23:15;;;;;;;1.85;1.30;;;;;;;;;;6207366;23;20109;-52
2022/04/18 01:31:11;;;;;;;1.17;1.08;;;;;;;;;;6207066;23;20014;-50
2022/04/18 01:33:37;;;;;;;1.20;1.08;;;;;;;;;;6206636;23;20458;-53
2022/04/18 01:36:03;;;;;;;1.27;1.10;;;;;;;;;;6207547;23;20580;-52
2022/04/18 01:38:29;;;;;;;1.35;1.15;;;;;;;;;;6207595;23;20009;-53
2022/04/18 01:40:55;;;;;;;1.75;1.10;;;;;;;;;;6207372;23;20088;-53
2022/04/18 01:43:21;;;;;;;1.27;1.08;;;;;;;;;;6206970;23;20486;-53
2022/04/18 01:45:47;;;;;;;1.83;1.08;;;;;;;;;;6207331;23;20388;-51
2022/04/18 01:48:13;;;;;;;1.58;1.20;;;;;;;;;;6207276;23;20000;-52
2022/04/18 01:50:40;;;;;;;0.70;0.70;;;;;;;;;;6208241;23;20071;-53
2022/04/18 01:53:06;;;;;;;1.08;0.88;;;;;;;;;;6206675;23;20004;-51
2022/04/18 01:55:32;;;;;;;1.75;1.02;;;;;;;;;;6207343;23;20005;-51
2022/04/18 01:57:58;;;;;;;1.27;0.93;;;;;;;;;;6207303;23;20052;-52
2022/04/18 02:00:24;;;;;;;1.00;0.90;;;;;;;;;;6206783;23;20079;-50
2022/04/18 02:02:50;;;;;;;1.95;0.90;;;;;;;;;;6207013;23;20079;-51
2022/04/18 02:05:16;;;;;;;2.15;1.08;;;;;;;;;;6206910;23;20010;-52
2022/04/18 02:07:42;;;;;;;1.38;1.00;;;;;;;;;;6207555;23;20007;-51
2022/04/18 02:10:08;;;;;;;1.10;0.90;;;;;;;;;;6208077;23;20074;-53
2022/04/18 02:12:35;;;;;;;0.85;0.80;;;;;;;;;;6206020;23;20009;-49
2022/04/18 02:15:01;;;;;;;0.93;0.82;;;;;;;;;;6206148;23;20059;-53
2022/04/18 02:17:27;;;;;;;0.80;0.80;;;;;;;;;;6207386;23;20341;-53
2022/04/18 02:19:53;;;;;;;1.00;0.82;;;;;;;;;;6206609;23;20040;-52
2022/04/18 02:22:19;;;;;;;1.20;0.70;;;;;;;;;;6206822;23;20004;-52
2022/04/18 02:24:46;;;;;;;0.85;0.80;;;;;;;;;;6206280;23;20001;-52
2022/04/18 02:27:12;;;;;;;1.20;0.95;;;;;;;;;;6206778;23;20000;-53
2022/04/18 02:29:38;;;;;;;1.15;0.90;;;;;;;;;;6206209;23;20413;-51
2022/04/18 02:34:49;;;;;;;1.13;1.02;;;;;;;;;;6207019;23;20433;-52
2022/04/18 02:37:15;;;;;;;1.10;0.90;;;;;;;;;;6206041;23;20035;-53
2022/04/18 02:39:41;;;;;;;1.83;1.05;;;;;;;;;;6207098;23;20000;-52
2022/04/18 02:42:08;;;;;;;1.30;0.73;;;;;;;;;;6206806;23;20007;-49
2022/04/18 02:44:34;;;;;;;1.25;1.00;;;;;;;;;;6207202;23;20001;-52
2022/04/18 02:47:00;;;;;;;0.82;0.80;;;;;;;;;;6206815;23;20009;-49
2022/04/18 02:49:26;;;;;;;1.63;1.10;;;;;;;;;;6206871;23;20056;-51
2022/04/18 02:51:52;;;;;;;1.23;1.00;;;;;;;;;;6207244;23;20050;-50
2022/04/18 02:54:18;;;;;;;1.23;0.93;;;;;;;;;;6207010;23;20461;-52
2022/04/18 02:56:44;;;;;;;1.00;0.90;;;;;;;;;;6207087;23;20043;-53
2022/04/18 02:59:10;;;;;;;1.20;1.10;;;;;;;;;;6207374;23;20071;-52
2022/04/18 03:01:36;;;;;;;1.67;0.98;;;;;;;;;;6206972;23;20024;-51
2022/04/18 03:04:03;;;;;;;1.23;0.90;;;;;;;;;;6206677;23;20015;-51
2022/04/18 03:06:29;;;;;;;1.88;0.90;;;;;;;;;;6208416;23;20031;-53
2022/04/18 03:08:55;;;;;;;1.25;0.80;;;;;;;;;;6209119;23;20651;-53
2022/04/18 03:11:21;;;;;;;1.15;0.95;;;;;;;;;;6208678;23;20079;-52
2022/04/18 03:13:47;;;;;;;1.48;0.80;;;;;;;;;;6209193;23;20508;-52
2022/04/18 03:16:14;;;;;;;0.82;0.77;;;;;;;;;;6208667;23;20004;-52
2022/04/18 03:18:40;;;;;;;0.88;0.80;;;;;;;;;;6209511;23;20139;-53
2022/04/18 03:21:06;;;;;;;2.25;1.20;;;;;;;;;;6208571;23;20391;-52
2022/04/18 03:23:32;;;;;;;1.98;1.08;;;;;;;;;;6208603;23;20401;-52
2022/04/18 03:25:59;;;;;;;1.83;1.00;;;;;;;;;;6208439;23;20024;-50
2022/04/18 03:28:26;;;;;;;1.70;1.02;;;;;;;;;;6208417;23;20001;-53
2022/04/18 03:30:52;;;;;;;1.60;1.20;;;;;;;;;;6208722;23;20004;-51
2022/04/18 03:33:18;;;;;;;2.50;1.60;;;;;;;;;;6208629;23;20035;-51
2022/04/18 03:41:33;;;;;;;1.13;1.00;;;;;;;;;;6116135;23;19909;-52
2022/04/18 03:44:00;;;;;;;1.52;1.02;;;;;;;;;;6115557;23;20028;-51
2022/04/18 03:46:26;;;;;;;1.08;0.85;;;;;;;;;;6159102;23;20354;-53
2022/04/18 03:48:52;;;;;;;0.93;0.80;;;;;;;;;;6208870;23;19996;-52
2022/04/18 03:51:18;;;;;;;1.33;0.90;;;;;;;;;;6208689;23;20430;-53
2022/04/18 03:53:44;;;;;;;0.93;0.63;;;;;;;;;;6208453;23;20393;-52
2022/04/18 03:56:10;;;;;;;1.30;0.85;;;;;;;;;;6209319;23;20005;-51
2022/04/18 03:58:36;;;;;;;1.20;0.88;;;;;;;;;;6208453;23;20497;-52
2022/04/18 04:01:02;;;;;;;0.75;0.75;;;;;;;;;;6208355;23;20028;-53
2022/04/18 04:03:28;;;;;;;0.52;0.52;;;;;;;;;;6207597;23;20593;-51
2022/04/18 04:05:54;;;;;;;2.33;1.05;;;;;;;;;;6208843;23;20023;-52
2022/04/18 04:08:24;;;;;;;1.10;0.80;;;;;;;;;;6208365;23;20905;-52
2022/04/18 04:10:50;;;;;;;1.65;0.85;;;;;;;;;;6207730;23;20016;-51
2022/04/18 04:13:17;;;;;;;0.82;0.70;;;;;;;;;;6208312;23;20707;-52
2022/04/18 04:15:43;;;;;;;1.20;1.00;;;;;;;;;;6207201;23;20005;-52
2022/04/18 04:18:09;;;;;;;1.35;1.13;;;;;;;;;;6208249;23;20020;-48
2022/04/18 04:20:35;;;;;;;1.40;1.30;;;;;;;;;;6207904;23;20111;-51
2022/04/18 04:23:02;;;;;;;0.90;0.90;;;;;;;;;;6207598;23;20035;-53
2022/04/18 04:25:28;;;;;;;0.73;0.73;;;;;;;;;;6208296;23;20008;-51
2022/04/18 04:27:54;;;;;;;0.70;0.70;;;;;;;;;;6208310;23;20012;-50
2022/04/18 04:30:20;;;;;;;1.02;0.80;;;;;;;;;;6206587;23;20028;-52
2022/04/18 04:32:48;;;;;;;1.10;0.90;;;;;;;;;;6207842;23;20075;-49
2022/04/18 04:35:14;;;;;;;2.15;1.05;;;;;;;;;;6207741;23;20009;-52
2022/04/18 04:37:40;;;;;;;0.93;0.80;;;;;;;;;;6207394;23;20063;-52
2022/04/18 04:40:08;;;;;;;1.42;0.93;;;;;;;;;;6206973;23;20020;-52
2022/04/18 04:42:34;;;;;;;1.67;0.85;;;;;;;;;;6207460;23;20000;-51
2022/04/18 04:45:00;;;;;;;0.70;0.70;;;;;;;;;;6207627;23;20000;-52
2022/04/18 04:47:26;;;;;;;0.77;0.70;;;;;;;;;;6208044;23;20337;-52
2022/04/18 04:49:52;;;;;;;0.98;0.88;;;;;;;;;;6207995;23;20089;-52
2022/04/18 04:52:20;;;;;;;1.13;0.88;;;;;;;;;;6207910;23;20072;-51
2022/04/18 04:54:46;;;;;;;1.13;0.90;;;;;;;;;;6207744;23;20024;-50
2022/04/18 04:57:12;;;;;;;1.00;0.80;;;;;;;;;;6208518;23;20085;-52
2022/04/18 04:59:38;;;;;;;0.70;0.70;;;;;;;;;;6206625;23;20001;-50
2022/04/18 05:02:05;;;;;;;0.68;0.60;;;;;;;;;;6205979;23;20330;-50
2022/04/18 05:04:31;;;;;;;0.60;0.60;;;;;;;;;;6207367;23;20009;-51
2022/04/18 05:06:57;;;;;;;0.63;0.63;;;;;;;;;;6180508;23;20007;-50
2022/04/18 05:09:23;;;;;;;1.08;0.80;;;;;;;;;;6207053;23;20345;-51
2022/04/18 05:11:50;;;;;;;0.70;0.70;;;;;;;;;;6207583;23;20526;-52
2022/04/18 05:14:16;;;;;;;0.85;0.70;;;;;;;;;;6207516;23;20000;-49
2022/04/18 05:16:42;;;;;;;0.70;0.60;;;;;;;;;;6181760;23;20001;-51
2022/04/18 05:19:08;;;;;;;0.80;0.60;;;;;;;;;;6206728;23;20001;-53
2022/04/18 05:21:35;;;;;;;0.50;0.50;;;;;;;;;;6207607;23;20035;-53
2022/04/18 05:24:01;;;;;;;0.70;0.70;;;;;;;;;;6207622;23;20464;-51
2022/04/18 05:26:28;;;;;;;0.80;0.70;;;;;;;;;;6207515;23;20005;-51
2022/04/18 05:28:54;;;;;;;1.30;1.00;;;;;;;;;;6206102;23;20024;-52
2022/04/18 05:31:20;;;;;;;0.63;0.63;;;;;;;;;;6207098;23;20016;-52
2022/04/18 05:33:46;;;;;;;1.08;0.70;;;;;;;;;;6207433;23;20020;-50
2022/04/18 05:36:12;;;;;;;0.60;0.60;;;;;;;;;;6180893;23;20004;-51
2022/04/18 05:38:39;;;;;;;1.15;0.80;;;;;;;;;;6207181;23;20004;-49
2022/04/18 05:41:05;;;;;;;0.70;0.70;;;;;;;;;;6207255;23;20599;-51
2022/04/18 05:43:31;;;;;;;0.75;0.60;;;;;;;;;;6207376;23;20699;-53
2022/04/18 05:45:57;;;;;;;0.60;0.60;;;;;;;;;;6207230;23;20326;-52
2022/04/18 05:48:23;;;;;;;1.67;1.00;;;;;;;;;;6207425;23;19997;-52
2022/04/18 05:50:49;;;;;;;0.80;0.80;;;;;;;;;;6206638;23;20011;-50
2022/04/18 05:53:16;;;;;;;0.82;0.80;;;;;;;;;;6207530;23;20127;-50
2022/04/18 05:55:43;;;;;;;1.30;1.00;;;;;;;;;;6208024;23;20051;-52
2022/04/18 05:58:09;;;;;;;1.25;0.88;;;;;;;;;;6207163;23;20051;-51
2022/04/18 06:00:35;;;;;;;2.00;1.10;;;;;;;;;;6207284;23;20441;-52
2022/04/18 06:03:02;;;;;;;1.13;0.93;;;;;;;;;;6206613;23;20080;-50
2022/04/18 06:05:28;;;;;;;1.10;0.90;;;;;;;;;;6207511;23;20026;-51
2022/04/18 06:07:54;;;;;;;1.00;0.90;;;;;;;;;;6207316;23;20000;-53
2022/04/18 06:10:21;;;;;;;1.00;0.80;;;;;;;;;;6206927;23;20012;-53
2022/04/18 06:12:47;;;;;;;1.45;1.00;;;;;;;;;;6205742;23;20396;-52
2022/04/18 06:15:13;;;;;;;0.77;0.70;;;;;;;;;;6207196;23;20011;-52
2022/04/18 06:17:39;;;;;;;1.40;0.85;;;;;;;;;;6206689;23;20032;-49
2022/04/18 06:20:05;;;;;;;1.33;0.95;;;;;;;;;;6204609;23;20005;-52
2022/04/18 06:22:32;;;;;;;0.90;0.75;;;;;;;;;;6206938;23;20538;-49
2022/04/18 06:24:58;;;;;;;0.80;0.80;;;;;;;;;;6206606;23;20438;-51
2022/04/18 06:27:24;;;;;;;1.27;0.90;;;;;;;;;;6206748;23;20059;-50
2022/04/18 06:29:50;;;;;;;1.48;0.95;;;;;;;;;;6206708;23;20080;-53
2022/04/18 06:32:16;;;;;;;1.30;1.02;;;;;;;;;;6206995;23;20441;-49
2022/04/18 06:34:42;;;;;;;1.65;1.15;;;;;;;;;;6207626;23;20405;-52
2022/04/18 06:37:08;;;;;;;0.93;0.70;;;;;;;;;;6205675;23;20000;-50
2022/04/18 06:39:36;;;;;;;1.10;0.90;;;;;;;;;;6206483;23;20041;-49
2022/04/18 06:42:03;;;;;;;0.80;0.80;;;;;;;;;;6179825;23;20004;-52
2022/04/18 06:44:29;;;;;;;0.98;0.88;;;;;;;;;;6206702;23;20003;-50
2022/04/18 06:46:55;;;;;;;1.35;0.98;;;;;;;;;;6206930;23;20692;-51
2022/04/18 06:49:21;;;;;;;0.70;0.70;;;;;;;;;;6206613;23;20005;-49
2022/04/18 06:51:47;;;;;;;1.08;0.80;;;;;;;;;;6207067;23;20369;-52
2022/04/18 06:54:13;;;;;;;1.08;0.98;;;;;;;;;;6207432;23;20001;-49
2022/04/18 06:59:24;;;;;;;1.17;1.08;;;;;;;;;;6205084;23;20059;-48
2022/04/18 07:01:50;;;;;;;1.13;0.80;;;;;;;;;;6206987;23;20000;-49
2022/04/18 07:04:16;;;;;;;0.93;0.90;;;;;;;;;;6206333;23;20020;-52
2022/04/18 07:06:43;;;;;;;1.05;0.93;;;;;;;;;;6207364;23;20335;-52
2022/04/18 07:09:09;;;;;;;1.40;1.30;;;;;;;;;;6205440;23;20004;-52
2022/04/18 07:11:36;;;;;;;1.00;0.90;;;;;;;;;;6206529;23;20008;-53
2022/04/18 07:14:02;;;;;;;1.13;1.00;;;;;;;;;;6205971;23;20019;-49
2022/04/18 07:16:30;;;;;;;1.25;1.15;;;;;;;;;;6180085;23;20008;-51
2022/04/18 07:18:57;;;;;;;1.38;1.00;;;;;;;;;;6206141;23;20000;-52
2022/04/18 07:21:23;;;;;;;1.15;0.85;;;;;;;;;;6206378;23;20008;-51
2022/04/18 07:23:49;;;;;;;1.30;1.05;;;;;;;;;;6206126;23;20465;-51
2022/04/18 07:26:15;;;;;;;1.33;1.10;;;;;;;;;;6207382;23;20315;-52
2022/04/18 07:28:41;;;;;;;1.42;1.00;;;;;;;;;;6207469;23;20477;-52
2022/04/18 07:31:07;;;;;;;1.25;1.13;;;;;;;;;;6205938;23;20529;-52
2022/04/18 07:33:34;;;;;;;1.00;0.90;;;;;;;;;;6206211;23;20331;-52
2022/04/18 07:36:00;;;;;;;0.80;0.80;;;;;;;;;;6206580;23;20008;-51
2022/04/18 07:41:11;;;;;;;0.80;0.80;;;;;;;;;;6207191;23;20343;-51
2022/04/18 07:43:38;;;;;;;1.73;0.98;;;;;;;;;;6206667;23;20035;-50
2022/04/18 07:46:04;;;;;;;1.02;0.90;;;;;;;;;;6205261;23;20050;-51
2022/04/18 07:48:33;;;;;;;0.95;0.88;;;;;;;;;;6205795;23;20004;-48
2022/04/18 07:53:44;;;;;;;0.85;0.82;;;;;;;;;;6209424;23;20016;-48
2022/04/18 07:56:10;;;;;;;0.95;0.88;;;;;;;;;;6207745;23;20008;-50
2022/04/18 07:58:37;;;;;;;1.17;0.80;;;;;;;;;;6207707;23;20015;-50
2022/04/18 08:01:03;;;;;;;0.65;0.65;;;;;;;;;;6207921;23;20008;-50
2022/04/18 08:03:29;;;;;;;0.57;0.57;;;;;;;;;;6208255;23;20079;-50
2022/04/18 08:05:56;;;;;;;0.70;0.70;;;;;;;;;;6209404;23;20000;-52
2022/04/18 08:08:22;;;;;;;1.10;0.77;;;;;;;;;;6207455;23;20025;-50
2022/04/18 08:10:48;;;;;;;1.10;1.00;;;;;;;;;;6209065;23;20004;-51
2022/04/18 08:13:14;;;;;;;0.98;0.77;;;;;;;;;;6208312;23;20009;-52
2022/04/18 08:15:40;;;;;;;0.80;0.80;;;;;;;;;;6209296;23;20008;-52
2022/04/18 08:18:07;;;;;;;1.30;0.77;;;;;;;;;;6208329;23;20464;-52
2022/04/18 08:20:33;;;;;;;0.85;0.80;;;;;;;;;;6208987;23;20011;-51
2022/04/18 08:22:59;;;;;;;0.80;0.60;;;;;;;;;;6207277;23;20005;-52
2022/04/18 08:25:25;;;;;;;0.63;0.63;;;;;;;;;;6207381;23;20387;-51
2022/04/18 08:27:51;;;;;;;0.88;0.63;;;;;;;;;;6207724;23;20001;-51
2022/04/18 08:30:17;;;;;;;0.60;0.60;;;;;;;;;;6178919;23;20012;-49
2022/04/18 08:32:44;;;;;;;0.55;0.55;;;;;;;;;;6207887;23;20008;-50
2022/04/18 08:35:10;;;;;;;0.80;0.60;;;;;;;;;;6208654;23;20081;-52
2022/04/18 08:37:37;;;;;;;0.57;0.57;;;;;;;;;;6208991;23;20030;-51
2022/04/18 08:40:04;;;;;;;0.57;0.55;;;;;;;;;;6208436;23;20015;-51
2022/04/18 08:42:33;;;;;;;0.63;0.63;;;;;;;;;;6208043;23;20007;-52
2022/04/18 08:45:01;;;;;;;0.40;0.40;;;;;;;;;;6208671;23;20028;-52
2022/04/18 08:52:58;;;;;;;0.43;0.43;;;;;;;;;;6208951;23;20067;-52
2022/04/18 08:55:25;;;;;;;0.38;0.38;;;;;;;;;;6208762;23;20385;-52
2022/04/18 08:57:51;;;;;;;0.77;0.57;;;;;;;;;;6208650;23;20011;-53
2022/04/18 09:00:18;;;;;;;0.50;0.50;;;;;;;;;;6208126;23;20004;-51
2022/04/18 09:02:44;;;;;;;0.68;0.60;;;;;;;;;;6209470;23;19997;-51
2022/04/18 09:05:11;;;;;;;0.50;0.50;;;;;;;;;;6208546;23;20008;-53
2022/04/18 09:07:41;;;;;;;0.40;0.40;;;;;;;;;;6181648;23;20020;-53
2022/04/18 09:10:07;;;;;;;0.50;0.50;;;;;;;;;;6207449;23;20399;-48
2022/04/18 09:12:33;;;;;;;0.50;0.50;;;;;;;;;;6206939;23;20035;-50
2022/04/18 09:15:00;;;;;;;0.50;0.50;;;;;;;;;;6207839;23;20009;-47
2022/04/18 09:17:33;;;;;;;0.50;0.50;;;;;;;;;;6207630;23;20434;-52
2022/04/18 09:20:06;;;;;;;0.55;0.55;;;;;;;;;;6207605;23;20005;-50
2022/04/18 09:22:40;;;;;;;0.57;0.50;;;;;;;;;;6207410;23;20028;-49
2022/04/18 09:25:06;;;;;;;;;;;;;;;;;;6207914;23;20458;-52
2022/04/18 09:27:32;;;;;;;1.42;0.80;;;;;;;;;;6207683;23;19899;-49
2022/04/18 09:30:06;;;;;;;0.60;0.60;;;;;;;;;;6207114;23;20335;-53
2022/04/18 09:32:32;;;;;;;0.60;0.60;;;;;;;;;;6181575;23;20036;-53
2022/04/18 09:35:02;;;;;;;0.95;0.82;;;;;;;;;;6207483;23;20012;-52
2022/04/18 09:37:29;;;;;;;0.50;0.50;;;;;;;;;;6208374;23;20020;-51
2022/04/18 09:39:56;;;;;;;0.50;0.50;;;;;;;;;;6181259;23;20015;-52
2022/04/18 09:42:23;;;;;;;0.40;0.40;;;;;;;;;;6207300;23;20492;-52
2022/04/18 09:44:50;;;;;;;1.08;0.70;;;;;;;;;;6208326;23;20334;-48
2022/04/18 09:47:19;;;;;;;0.55;0.55;;;;;;;;;;6206487;23;20079;-52
2022/04/18 09:49:46;;;;;;;0.43;0.40;;;;;;;;;;6207876;23;20000;-48
2022/04/18 09:52:13;;;;;;;0.50;0.50;;;;;;;;;;6206701;23;20036;-50
2022/04/18 09:54:50;;;;;;;0.50;0.50;;;;;;;;;;6206944;23;20012;-51
2022/04/18 09:57:20;;;;;;;0.77;0.75;;;;;;;;;;6205377;23;20005;-51
2022/04/18 09:59:47;;;;;;;1.10;0.70;;;;;;;;;;6205059;23;20047;-52
2022/04/18 10:02:13;;;;;;;0.60;0.60;;;;;;;;;;6205281;23;20088;-53
2022/04/18 10:04:40;;;;;;;0.50;0.50;;;;;;;;;;6204915;23;20289;-53
2022/04/18 10:07:07;;;;;;;0.60;0.60;;;;;;;;;;6206515;23;20319;-52
2022/04/18 10:09:33;;;;;;;0.88;0.60;;;;;;;;;;6206813;23;20004;-51
2022/04/18 10:12:00;;;;;;;0.50;0.50;;;;;;;;;;6207299;23;20056;-53
2022/04/18 10:14:26;;;;;;;0.60;0.55;;;;;;;;;;6207030;23;20014;-50
2022/04/18 10:16:53;;;;;;;0.90;0.68;;;;;;;;;;6207408;23;20000;-48
2022/04/18 10:19:38;;;;;;;1.15;0.93;;;;;;;;;;6207022;23;20445;-51
2022/04/18 10:22:17;;;;;;;0.70;0.70;;;;;;;;;;6207588;23;20087;-52
2022/04/18 10:24:57;;;;;;;0.93;0.80;;;;;;;;;;6208449;23;20481;-53
2022/04/18 10:27:30;;;;;;;0.90;0.90;;;;;;;;;;6207069;23;20414;-48
2022/04/18 10:30:00;;;;;;;1.08;0.90;;;;;;;;;;6207633;23;20005;-47
2022/04/18 10:32:27;;;;;;;0.98;0.80;;;;;;;;;;6207983;23;20005;-53
2022/04/18 10:34:56;;;;;;;1.95;1.20;;;;;;;;;;6207540;23;20861;-52
2022/04/18 10:37:26;;;;;;;1.60;1.20;;;;;;;;;;6206057;23;20319;-49
2022/04/18 10:39:57;;;;;;;1.33;1.10;;;;;;;;;;6205415;23;20005;-51
2022/04/18 10:42:27;;;;;;;1.05;0.95;;;;;;;;;;6205607;23;20005;-52
2022/04/18 10:45:14;;;;;;;1.02;0.90;;;;;;;;;;6206500;23;20004;-48
2022/04/18 10:47:59;;;;;;;1.42;0.98;;;;;;;;;;6206905;23;20092;-51
2022/04/18 10:50:25;;;;;;;0.88;0.88;;;;;;;;;;6206822;23;20381;-53
2022/04/18 10:53:10;;;;;;;1.02;0.70;;;;;;;;;;6206848;23;20039;-52
2022/04/18 10:55:37;;;;;;;0.93;0.70;;;;;;;;;;6206428;23;20027;-51
2022/04/18 10:58:13;;;;;;;0.90;0.65;;;;;;;;;;6206502;23;20389;-53
2022/04/18 11:00:49;;;;;;;0.60;0.60;;;;;;;;;;6206302;23;20019;-53
2022/04/18 11:03:15;;;;;;;0.65;0.65;;;;;;;;;;6207183;23;20011;-51
2022/04/18 11:05:41;;;;;;;0.50;0.50;;;;;;;;;;6180801;23;20016;-53
2022/04/18 11:08:26;;;;;;;0.40;0.40;;;;;;;;;;6179012;23;20484;-53
2022/04/18 11:10:54;;;;;;;0.85;0.60;;;;;;;;;;6206696;23;20005;-49
2022/04/18 11:13:26;;;;;;;0.40;0.40;;;;;;;;;;6179458;23;20017;-52
2022/04/18 11:15:52;;;;;;;0.60;0.50;;;;;;;;;;6206625;23;20000;-50
2022/04/18 11:18:33;;;;;;;0.50;0.50;;;;;;;;;;6206155;23;20303;-50
2022/04/18 11:20:59;;;;;;;0.40;0.40;;;;;;;;;;6206617;23;20013;-49
2022/04/18 11:23:27;;;;;;;0.57;0.57;;;;;;;;;;6206048;23;20028;-51
2022/04/18 11:25:57;;;;;;;0.50;0.50;;;;;;;;;;6206450;23;20035;-52
2022/04/18 11:28:26;;;;;;;0.70;0.70;;;;;;;;;;6208415;23;19996;-50
2022/04/18 11:30:52;;;;;;;0.60;0.60;;;;;;;;;;6207621;23;20369;-53
2022/04/18 11:33:18;;;;;;;0.50;0.50;;;;;;;;;;6208061;23;20088;-48
2022/04/18 11:35:44;;;;;;;0.82;0.70;;;;;;;;;;6209933;23;20079;-52
2022/04/18 11:38:11;;;;;;;0.70;0.60;;;;;;;;;;6209835;23;20393;-52
2022/04/18 11:40:38;;;;;;;0.88;0.68;;;;;;;;;;6209434;23;20092;-52
2022/04/18 11:43:11;;;;;;;0.60;0.60;;;;;;;;;;6208559;23;20027;-52
2022/04/18 11:45:38;;;;;;;0.70;0.70;;;;;;;;;;6208842;23;20075;-51
2022/04/18 11:48:04;;;;;;;0.50;0.50;;;;;;;;;;6208362;23;20005;-48
2022/04/18 11:50:32;;;;;;;0.65;0.60;;;;;;;;;;6209184;23;20088;-52
2022/04/18 11:53:09;;;;;;;0.73;0.65;;;;;;;;;;6182786;23;20012;-52
2022/04/18 11:55:45;;;;;;;1.27;0.80;;;;;;;;;;6209000;23;20009;-50
2022/04/18 11:58:12;;;;;;;0.43;0.43;;;;;;;;;;6208251;23;20004;-52
2022/04/18 12:09:01;;;;;;;0.45;0.45;;;;;;;;;;6208245;23;20063;-52
2022/04/18 12:11:33;;;;;;;0.82;0.75;;;;;;;;;;6209344;23;20059;-50
2022/04/18 12:14:00;;;;;;;1.17;0.70;;;;;;;;;;6209050;23;20454;-51
2022/04/18 12:16:26;;;;;;;0.60;0.60;;;;;;;;;;6208239;23;20004;-49
2022/04/18 12:18:55;;;;;;;0.85;0.73;;;;;;;;;;6207647;23;20534;-49
2022/04/18 12:21:23;;;;;;;0.70;0.70;;;;;;;;;;6208174;23;20005;-49
2022/04/18 12:23:54;;;;;;;0.63;0.63;;;;;;;;;;6208976;23;20382;-51
2022/04/18 12:26:20;;;;;;;1.02;0.93;;;;;;;;;;6208989;23;20016;-51
2022/04/18 12:28:47;;;;;;;0.60;0.60;;;;;;;;;;6208949;23;20068;-49
2022/04/18 12:31:13;;;;;;;0.60;0.60;;;;;;;;;;6209468;23;20000;-50
2022/04/18 12:33:49;;;;;;;0.50;0.50;;;;;;;;;;6209288;23;20008;-51
2022/04/18 12:36:24;;;;;;;1.35;0.60;;;;;;;;;;6208459;23;20011;-51
2022/04/18 12:38:50;;;;;;;0.55;0.50;;;;;;;;;;6208347;23;20692;-51
2022/04/18 12:41:26;;;;;;;0.43;0.43;;;;;;;;;;6207763;23;20001;-51
2022/04/18 12:43:52;;;;;;;0.95;0.80;;;;;;;;;;6206495;23;20445;-52
2022/04/18 12:46:23;;;;;;;0.57;0.50;;;;;;;;;;6207691;23;20481;-49
2022/04/18 12:48:51;;;;;;;0.63;0.50;;;;;;;;;;6206790;23;20007;-53
2022/04/18 12:51:18;;;;;;;0.60;0.55;;;;;;;;;;6206911;23;20000;-53
2022/04/18 12:53:48;;;;;;;0.63;0.55;;;;;;;;;;6208462;23;20001;-51
2022/04/18 12:56:20;;;;;;;0.73;0.68;;;;;;;;;;6208369;23;20083;-52
2022/04/18 12:58:46;;;;;;;0.60;0.50;;;;;;;;;;6207113;23;20080;-51
2022/04/18 13:01:21;;;;;;;2.05;0.57;;;;;;;;;;6208167;23;20035;-53
2022/04/18 13:03:47;;;;;;;0.43;0.43;;;;;;;;;;6207796;23;20070;-51
2022/04/18 13:06:14;;;;;;;0.77;0.60;;;;;;;;;;6208165;23;19997;-52
2022/04/18 13:08:41;;;;;;;0.60;0.60;;;;;;;;;;6207563;23;20009;-49
2022/04/18 13:11:07;;;;;;;0.70;0.60;;;;;;;;;;6206199;23;20065;-48
2022/04/18 13:13:34;;;;;;;0.65;0.60;;;;;;;;;;6207003;23;20004;-52
2022/04/18 13:16:18;;;;;;;0.60;0.60;;;;;;;;;;6207730;23;20147;-49
2022/04/18 13:18:45;;;;;;;0.30;0.30;;;;;;;;;;6208372;23;20014;-52
2022/04/18 13:21:11;;;;;;;0.40;0.40;;;;;;;;;;6180730;23;20478;-50
2022/04/18 13:23:37;;;;;;;0.50;0.50;;;;;;;;;;6207793;23;20005;-52
2022/04/18 13:26:03;;;;;;;0.40;0.40;;;;;;;;;;6207206;23;20385;-51
2022/04/18 13:28:29;;;;;;;0.30;0.30;;;;;;;;;;6207639;23;20343;-51
2022/04/18 13:30:55;;;;;;;0.50;0.40;;;;;;;;;;6206720;23;20328;-49
2022/04/18 13:33:21;;;;;;;0.30;0.30;;;;;;;;;;6206433;23;20434;-52
2022/04/18 13:38:33;;;;;;;0.40;0.40;;;;;;;;;;6206464;23;20062;-50
2022/04/18 13:40:59;;;;;;;0.30;0.30;;;;;;;;;;6205485;23;20005;-51
2022/04/18 13:43:25;;;;;;;0.95;0.40;;;;;;;;;;6205939;23;20074;-52
2022/04/18 13:45:51;;;;;;;0.63;0.40;;;;;;;;;;6205631;23;20472;-48
2022/04/18 13:48:19;;;;;;;0.35;0.35;;;;;;;;;;6205779;23;20067;-51
2022/04/18 13:50:45;;;;;;;0.40;0.40;;;;;;;;;;6205866;23;20008;-48
2022/04/18 13:53:11;;;;;;;0.60;0.30;;;;;;;;;;6207381;23;20023;-52
2022/04/18 13:55:38;;;;;;;0.20;0.20;;;;;;;;;;6206591;23;20005;-51
2022/04/18 13:58:05;;;;;;;0.40;0.30;;;;;;;;;;6207220;23;20341;-52
2022/04/18 14:00:31;;;;;;;0.45;0.45;;;;;;;;;;6206904;23;20004;-53
2022/04/18 14:02:57;;;;;;;0.30;0.30;;;;;;;;;;6179633;23;20374;-51
2022/04/18 14:05:24;;;;;;;0.28;0.28;;;;;;;;;;6205112;23;20453;-52
2022/04/18 14:07:50;;;;;;;0.40;0.40;;;;;;;;;;6204840;23;20013;-52
2022/04/18 14:10:16;;;;;;;0.40;0.40;;;;;;;;;;6205279;23;20062;-52
2022/04/18 14:12:42;;;;;;;0.20;0.20;;;;;;;;;;6206200;23;20016;-51
2022/04/18 14:20:38;;;;;;;0.45;0.30;;;;;;;;;;6205467;23;20074;-53
2022/04/18 14:23:05;;;;;;;1.08;0.45;;;;;;;;;;6205184;23;20047;-53
2022/04/18 14:25:31;;;;;;;0.20;0.20;;;;;;;;;;6206945;23;20079;-52
2022/04/18 14:27:57;;;;;;;0.38;0.38;;;;;;;;;;6206618;23;20361;-52
2022/04/18 14:30:23;;;;;;;0.40;0.40;;;;;;;;;;6206242;23;20005;-52
2022/04/18 14:32:49;;;;;;;0.32;0.30;;;;;;;;;;6206533;23;20008;-51
2022/04/18 14:35:15;;;;;;;0.40;0.40;;;;;;;;;;6179565;23;20008;-51
2022/04/18 14:37:42;;;;;;;0.52;0.45;;;;;;;;;;6205682;23;20001;-49
2022/04/18 14:40:09;;;;;;;0.30;0.30;;;;;;;;;;6205407;23;20031;-53
2022/04/18 14:42:37;;;;;;;0.30;0.30;;;;;;;;;;6205227;23;20210;-53
2022/04/18 14:45:04;;;;;;;0.30;0.30;;;;;;;;;;6204369;23;20009;-51
2022/04/18 14:47:30;;;;;;;0.30;0.30;;;;;;;;;;6204879;23;20027;-53
2022/04/18 14:49:56;;;;;;;0.30;0.30;;;;;;;;;;6206156;23;20468;-53
2022/04/18 14:52:22;;;;;;;0.30;0.30;;;;;;;;;;6205217;23;20000;-51
2022/04/18 14:54:50;;;;;;;0.52;0.40;;;;;;;;;;6205329;23;20023;-51
2022/04/18 14:57:18;;;;;;;0.40;0.40;;;;;;;;;;6205362;23;20009;-53
2022/04/18 14:59:47;;;;;;;0.35;0.35;;;;;;;;;;6206295;23;20013;-51
2022/04/18 15:02:14;;;;;;;0.43;0.40;;;;;;;;;;6208416;23;20076;-50
2022/04/18 15:04:40;;;;;;;0.40;0.40;;;;;;;;;;6207316;23;20012;-52
2022/04/18 15:07:06;;;;;;;0.30;0.30;;;;;;;;;;6207461;23;20050;-53
2022/04/18 15:09:33;;;;;;;0.40;0.40;;;;;;;;;;6207051;23;20442;-50
2022/04/18 15:11:59;;;;;;;0.25;0.25;;;;;;;;;;6181193;23;20009;-52
2022/04/18 15:14:25;;;;;;;0.40;0.40;;;;;;;;;;6181755;23;19996;-53
2022/04/18 15:16:52;;;;;;;0.40;0.40;;;;;;;;;;6207933;23;20064;-57
2022/04/18 15:19:18;;;;;;;0.40;0.40;;;;;;;;;;6208087;23;20394;-52
2022/04/18 15:21:44;;;;;;;0.30;0.30;;;;;;;;;;6209609;23;20005;-53
2022/04/18 15:24:10;;;;;;;0.30;0.30;;;;;;;;;;6207776;23;20319;-52
2022/04/18 15:26:36;;;;;;;0.30;0.30;;;;;;;;;;6208776;23;20011;-52